Time;durP1;ratioP1;P1;durP2;ratioP2;P2;SDS_P1;SDS_P2;PMS_P1;PMS_P2;Temp;Humidity;BMP_temperature;BMP_pressure;BME280_temperature;BME280_humidity;BME280_pressure;Samples;Min_cycle;Max_cycle;Signal;HPM_P1;HPM_P2
2021/05/01 00:02:05;;;;;;;24.87;14.23;;;;;;;;;;4360193;32;20173;-80
2021/05/01 00:04:32;;;;;;;24.93;16.20;;;;;;;;;;4360236;32;20466;-80
2021/05/01 00:06:57;;;;;;;22.30;15.27;;;;;;;;;;4359987;32;20162;-80
2021/05/01 00:09:25;;;;;;;31.13;15.30;;;;;;;;;;4346839;33;20162;-80
2021/05/01 00:11:51;;;;;;;26.27;15.87;;;;;;;;;;4360005;33;20174;-81
2021/05/01 00:14:16;;;;;;;28.30;16.80;;;;;;;;;;4360710;32;20143;-81
2021/05/01 00:16:41;;;;;;;33.63;17.03;;;;;;;;;;4360824;32;20544;-80
2021/05/01 00:19:06;;;;;;;27.07;16.13;;;;;;;;;;4360646;32;20467;-80
2021/05/01 00:21:32;;;;;;;23.57;15.50;;;;;;;;;;4347254;33;20159;-81
2021/05/01 00:23:57;;;;;;;32.93;17.27;;;;;;;;;;4360415;33;20139;-80
2021/05/01 00:26:22;;;;;;;35.47;17.77;;;;;;;;;;4346713;33;20677;-80
2021/05/01 00:28:48;;;;;;;35.03;18.53;;;;;;;;;;4360247;33;20139;-80
2021/05/01 00:31:18;;;;;;;32.10;17.97;;;;;;;;;;4361124;32;20170;-79
2021/05/01 00:33:46;;;;;;;32.57;18.30;;;;;;;;;;4363594;32;20142;-80
2021/05/01 00:36:11;;;;;;;30.97;18.30;;;;;;;;;;4362921;33;20170;-80
2021/05/01 00:38:37;;;;;;;31.07;18.60;;;;;;;;;;4363690;32;20166;-80
2021/05/01 00:41:02;;;;;;;30.47;19.90;;;;;;;;;;4363231;32;20214;-80
2021/05/01 00:43:33;;;;;;;27.67;17.93;;;;;;;;;;4363281;32;20194;-80
2021/05/01 00:46:04;;;;;;;32.53;18.20;;;;;;;;;;4349942;33;20135;-80
2021/05/01 00:48:29;;;;;;;39.70;21.10;;;;;;;;;;4363411;33;20173;-80
2021/05/01 00:50:54;;;;;;;34.23;19.77;;;;;;;;;;4363291;32;20158;-79
2021/05/01 00:53:23;;;;;;;40.87;21.10;;;;;;;;;;4363316;32;20527;-80
2021/05/01 00:55:48;;;;;;;36.47;19.97;;;;;;;;;;4349151;33;20163;-80
2021/05/01 00:58:14;;;;;;;34.90;20.70;;;;;;;;;;4363077;32;20193;-79
2021/05/01 01:03:22;;;;;;;36.47;22.43;;;;;;;;;;4363088;32;20135;-79
2021/05/01 01:05:47;;;;;;;36.57;20.80;;;;;;;;;;4362890;32;20170;-81
2021/05/01 01:08:18;;;;;;;42.67;22.80;;;;;;;;;;4363843;32;20134;-79
2021/05/01 01:10:46;;;;;;;44.80;22.57;;;;;;;;;;4363345;32;20219;-79
2021/05/01 01:13:19;;;;;;;41.53;22.90;;;;;;;;;;4362351;33;20139;-79
2021/05/01 01:15:53;;;;;;;37.27;20.57;;;;;;;;;;4363231;32;20151;-80
2021/05/01 01:18:25;;;;;;;40.10;22.50;;;;;;;;;;4363821;32;20134;-80
2021/05/01 01:20:50;;;;;;;35.47;20.37;;;;;;;;;;4363887;32;20189;-80
2021/05/01 01:23:16;;;;;;;37.80;22.20;;;;;;;;;;4362646;32;20191;-82
2021/05/01 01:25:41;;;;;;;43.67;21.87;;;;;;;;;;4362727;32;20136;-80
2021/05/01 01:28:07;;;;;;;43.47;21.33;;;;;;;;;;4362380;32;20136;-80
2021/05/01 01:30:34;;;;;;;40.93;20.97;;;;;;;;;;4348651;33;20167;-80
2021/05/01 01:33:00;;;;;;;43.20;21.53;;;;;;;;;;4349247;33;20255;-81
2021/05/01 01:35:26;;;;;;;39.67;21.33;;;;;;;;;;4362549;33;20234;-80
2021/05/01 01:37:52;;;;;;;34.60;19.40;;;;;;;;;;4362063;32;20171;-80
2021/05/01 01:40:18;;;;;;;32.27;19.40;;;;;;;;;;4362143;32;20208;-80
2021/05/01 01:42:44;;;;;;;34.60;19.77;;;;;;;;;;4362154;32;20143;-80
2021/05/01 01:45:10;;;;;;;35.90;19.20;;;;;;;;;;4361975;32;20246;-79
2021/05/01 01:47:36;;;;;;;33.40;18.10;;;;;;;;;;4362742;32;20607;-80
2021/05/01 01:50:05;;;;;;;32.53;18.37;;;;;;;;;;4361956;32;20139;-80
2021/05/01 01:52:37;;;;;;;38.47;20.60;;;;;;;;;;4362425;32;20237;-80
2021/05/01 01:55:06;;;;;;;30.90;19.80;;;;;;;;;;4362239;32;20545;-80
2021/05/01 01:57:39;;;;;;;39.47;20.00;;;;;;;;;;4348383;33;20515;-80
2021/05/01 02:00:11;;;;;;;35.07;19.13;;;;;;;;;;4362592;32;20529;-80
2021/05/01 02:02:45;;;;;;;32.43;19.13;;;;;;;;;;4362403;33;20599;-80
2021/05/01 02:05:11;;;;;;;37.10;19.07;;;;;;;;;;4362704;32;20186;-79
2021/05/01 02:07:36;;;;;;;35.60;18.40;;;;;;;;;;4362174;32;20202;-79
2021/05/01 02:10:02;;;;;;;36.10;20.60;;;;;;;;;;4362381;32;20528;-81
2021/05/01 02:12:28;;;;;;;37.60;20.63;;;;;;;;;;4361646;32;20163;-79
2021/05/01 02:14:53;;;;;;;40.90;21.03;;;;;;;;;;4360459;32;20565;-80
2021/05/01 02:17:19;;;;;;;35.60;20.20;;;;;;;;;;4362282;32;20139;-80
2021/05/01 02:19:44;;;;;;;38.03;20.43;;;;;;;;;;4361451;33;20636;-80
2021/05/01 02:22:17;;;;;;;37.67;20.80;;;;;;;;;;4361914;32;20539;-80
2021/05/01 02:24:43;;;;;;;37.47;20.20;;;;;;;;;;4362094;33;20152;-78
2021/05/01 02:27:23;;;;;;;30.40;18.63;;;;;;;;;;4362119;32;20614;-79
2021/05/01 02:29:49;;;;;;;34.73;19.10;;;;;;;;;;4361478;32;20529;-80
2021/05/01 02:32:14;;;;;;;29.80;18.00;;;;;;;;;;4361347;32;20127;-80
2021/05/01 02:34:45;;;;;;;30.37;18.30;;;;;;;;;;4361656;32;20525;-79
2021/05/01 02:37:10;;;;;;;29.53;18.23;;;;;;;;;;4362073;32;20198;-80
2021/05/01 02:39:36;;;;;;;37.17;20.70;;;;;;;;;;4362414;32;20178;-79
2021/05/01 02:42:04;;;;;;;43.83;21.70;;;;;;;;;;4361241;32;20468;-79
2021/05/01 02:44:35;;;;;;;35.43;20.10;;;;;;;;;;4361153;32;20158;-79
2021/05/01 02:47:00;;;;;;;38.70;20.53;;;;;;;;;;4361040;32;20181;-79
2021/05/01 02:49:25;;;;;;;40.60;22.13;;;;;;;;;;4361154;32;20135;-79
2021/05/01 02:51:51;;;;;;;37.90;21.67;;;;;;;;;;4361860;33;20182;-80
2021/05/01 02:54:16;;;;;;;40.40;22.77;;;;;;;;;;4361740;32;20157;-80
2021/05/01 02:56:42;;;;;;;40.27;21.60;;;;;;;;;;4354920;32;20135;-79
2021/05/01 02:59:07;;;;;;;40.43;22.73;;;;;;;;;;4348497;33;20158;-80
2021/05/01 03:01:32;;;;;;;39.37;20.33;;;;;;;;;;4362040;32;20283;-80
2021/05/01 03:03:57;;;;;;;35.97;19.90;;;;;;;;;;4361579;32;20181;-80
2021/05/01 03:06:23;;;;;;;32.10;19.73;;;;;;;;;;4361390;33;20124;-80
2021/05/01 03:08:48;;;;;;;36.90;17.80;;;;;;;;;;4360901;33;20127;-80
2021/05/01 03:11:16;;;;;;;33.27;18.33;;;;;;;;;;4361582;32;20161;-80
2021/05/01 03:13:41;;;;;;;34.37;18.97;;;;;;;;;;4360937;32;20193;-80
2021/05/01 03:16:09;;;;;;;36.90;19.87;;;;;;;;;;4360991;33;20214;-80
2021/05/01 03:18:35;;;;;;;37.70;21.23;;;;;;;;;;4360761;32;20143;-80
2021/05/01 03:21:00;;;;;;;32.07;20.20;;;;;;;;;;4361105;32;20233;-80
2021/05/01 03:23:27;;;;;;;39.10;20.83;;;;;;;;;;4361811;32;20449;-80
2021/05/01 03:25:54;;;;;;;35.07;20.90;;;;;;;;;;4360920;32;20147;-79
2021/05/01 03:28:21;;;;;;;31.57;18.83;;;;;;;;;;4361065;32;20163;-80
2021/05/01 03:31:08;;;;;;;40.70;21.37;;;;;;;;;;4360609;32;20175;-79
2021/05/01 03:33:32;;;;;;;37.27;21.23;;;;;;;;;;4360779;32;20185;-80
2021/05/01 03:35:57;;;;;;;33.73;20.03;;;;;;;;;;4348866;32;20166;-81
2021/05/01 03:38:22;;;;;;;35.30;21.33;;;;;;;;;;4360711;32;20131;-79
2021/05/01 03:40:48;;;;;;;37.90;21.10;;;;;;;;;;4360480;32;20202;-81
2021/05/01 03:43:13;;;;;;;39.50;20.97;;;;;;;;;;4360865;32;20158;-79
2021/05/01 03:45:47;;;;;;;41.90;22.17;;;;;;;;;;4360325;32;20165;-80
2021/05/01 03:48:18;;;;;;;44.33;23.13;;;;;;;;;;4360777;33;20124;-78
2021/05/01 03:50:49;;;;;;;46.33;22.40;;;;;;;;;;4360958;32;20158;-80
2021/05/01 03:53:15;;;;;;;39.47;22.07;;;;;;;;;;4360967;32;20123;-80
2021/05/01 03:55:40;;;;;;;45.40;24.40;;;;;;;;;;4360427;32;20236;-80
2021/05/01 03:58:05;;;;;;;39.57;23.10;;;;;;;;;;4361025;32;20221;-81
2021/05/01 04:00:36;;;;;;;47.47;23.30;;;;;;;;;;4360505;32;20155;-80
2021/05/01 04:03:01;;;;;;;42.20;23.77;;;;;;;;;;4359780;32;20217;-80
2021/05/01 04:05:26;;;;;;;40.93;23.10;;;;;;;;;;4359986;32;20435;-80
2021/05/01 04:07:51;;;;;;;37.93;21.67;;;;;;;;;;4360653;33;20185;-80
2021/05/01 04:10:26;;;;;;;39.23;23.60;;;;;;;;;;4360058;33;20503;-80
2021/05/01 04:12:53;;;;;;;46.00;23.40;;;;;;;;;;4360730;32;20170;-80
2021/05/01 04:15:19;;;;;;;39.70;21.87;;;;;;;;;;4358790;33;20163;-81
2021/05/01 04:17:49;;;;;;;43.23;22.57;;;;;;;;;;4346551;33;20193;-79
2021/05/01 04:20:25;;;;;;;39.37;22.43;;;;;;;;;;4360344;32;20223;-80
2021/05/01 04:23:25;;;;;;;39.27;22.00;;;;;;;;;;4360509;32;20138;-80
2021/05/01 04:25:53;;;;;;;47.13;23.53;;;;;;;;;;4356384;33;20539;-78
2021/05/01 04:28:21;;;;;;;41.33;24.10;;;;;;;;;;4360874;33;20134;-79
2021/05/01 04:30:46;;;;;;;40.20;21.67;;;;;;;;;;4353731;33;20155;-79
2021/05/01 04:33:12;;;;;;;42.93;22.87;;;;;;;;;;4360140;33;20192;-79
2021/05/01 04:35:40;;;;;;;42.10;21.97;;;;;;;;;;4359872;33;20198;-80
2021/05/01 04:38:08;;;;;;;42.00;22.83;;;;;;;;;;4359258;33;20241;-77
2021/05/01 04:41:18;;;;;;;36.73;21.17;;;;;;;;;;4346207;33;20166;-79
2021/05/01 04:43:27;;;;;;;32.90;19.73;;;;;;;;;;4353385;33;20492;-77
2021/05/01 04:45:53;;;;;;;34.40;20.30;;;;;;;;;;4360956;33;20410;-79
2021/05/01 04:48:24;;;;;;;33.77;19.73;;;;;;;;;;4360091;33;20131;-79
2021/05/01 04:50:55;;;;;;;36.57;21.00;;;;;;;;;;4358638;33;20479;-79
2021/05/01 04:53:21;;;;;;;38.33;21.67;;;;;;;;;;4360236;33;20209;-80
2021/05/01 04:55:46;;;;;;;33.17;19.70;;;;;;;;;;4346170;33;20527;-80
2021/05/01 04:58:14;;;;;;;32.63;19.67;;;;;;;;;;4360141;33;20170;-79
2021/05/01 05:00:42;;;;;;;31.30;19.40;;;;;;;;;;4359843;33;20140;-80
2021/05/01 05:03:08;;;;;;;31.00;19.10;;;;;;;;;;4360537;33;20209;-80
2021/05/01 05:05:33;;;;;;;28.53;17.93;;;;;;;;;;4346887;33;20131;-76
2021/05/01 05:08:04;;;;;;;28.13;16.63;;;;;;;;;;4359817;33;20124;-81
2021/05/01 05:10:29;;;;;;;30.03;17.60;;;;;;;;;;4346864;33;20182;-79
2021/05/01 05:12:54;;;;;;;27.30;17.83;;;;;;;;;;4360142;33;20210;-80
2021/05/01 05:15:19;;;;;;;29.13;17.53;;;;;;;;;;4359864;33;20161;-80
2021/05/01 05:17:47;;;;;;;26.97;17.57;;;;;;;;;;4362016;32;20521;-80
2021/05/01 05:20:13;;;;;;;24.30;16.30;;;;;;;;;;4362998;33;20563;-80
2021/05/01 05:22:38;;;;;;;28.13;17.00;;;;;;;;;;4362857;32;20198;-80
2021/05/01 05:25:04;;;;;;;30.73;17.13;;;;;;;;;;4362479;32;20177;-80
2021/05/01 05:27:32;;;;;;;31.53;16.97;;;;;;;;;;4362349;33;20151;-81
2021/05/01 05:29:57;;;;;;;28.23;16.50;;;;;;;;;;4362441;32;20143;-79
2021/05/01 05:32:25;;;;;;;26.37;16.60;;;;;;;;;;4362721;32;20574;-80
2021/05/01 05:34:53;;;;;;;29.00;15.30;;;;;;;;;;4348690;33;20208;-81
2021/05/01 05:37:18;;;;;;;25.20;16.20;;;;;;;;;;4362989;32;20131;-77
2021/05/01 05:39:45;;;;;;;21.67;13.93;;;;;;;;;;4348956;33;20151;-80
2021/05/01 05:42:11;;;;;;;28.73;14.93;;;;;;;;;;4362570;32;20167;-79
2021/05/01 05:44:38;;;;;;;22.33;13.63;;;;;;;;;;4362303;32;20579;-80
2021/05/01 05:47:03;;;;;;;21.57;12.53;;;;;;;;;;4362303;32;20181;-80
2021/05/01 05:49:29;;;;;;;19.43;12.53;;;;;;;;;;4361897;33;20128;-78
2021/05/01 05:51:54;;;;;;;19.90;12.17;;;;;;;;;;4361897;32;20222;-78
2021/05/01 05:54:28;;;;;;;20.60;12.10;;;;;;;;;;4362129;32;20169;-79
2021/05/01 05:56:57;;;;;;;17.90;10.73;;;;;;;;;;4362514;32;20127;-80
2021/05/01 05:59:22;;;;;;;15.97;10.13;;;;;;;;;;4362185;33;20178;-81
2021/05/01 06:01:48;;;;;;;20.27;10.80;;;;;;;;;;4361770;32;20135;-79
2021/05/01 06:04:33;;;;;;;17.33;10.17;;;;;;;;;;4362165;32;20443;-79
2021/05/01 06:07:22;;;;;;;15.33;8.87;;;;;;;;;;4362240;32;20142;-80
2021/05/01 06:09:47;;;;;;;16.97;10.57;;;;;;;;;;4362314;32;20194;-78
2021/05/01 06:12:13;;;;;;;17.70;9.37;;;;;;;;;;4362166;32;20128;-80
2021/05/01 06:14:44;;;;;;;13.73;8.77;;;;;;;;;;4362292;32;20154;-77
2021/05/01 06:17:11;;;;;;;16.27;9.27;;;;;;;;;;4361906;32;20154;-79
2021/05/01 06:19:38;;;;;;;14.57;7.97;;;;;;;;;;4361896;32;20146;-77
2021/05/01 06:22:03;;;;;;;19.17;8.73;;;;;;;;;;4360249;32;20193;-80
2021/05/01 06:24:29;;;;;;;14.37;8.53;;;;;;;;;;4361597;32;20469;-80
2021/05/01 06:26:57;;;;;;;16.73;7.37;;;;;;;;;;4362666;32;20189;-80
2021/05/01 06:29:25;;;;;;;12.23;7.37;;;;;;;;;;4360625;32;20131;-78
2021/05/01 06:31:51;;;;;;;16.07;7.77;;;;;;;;;;4361187;32;20177;-79
2021/05/01 06:34:16;;;;;;;12.30;7.57;;;;;;;;;;4361290;33;20171;-78
2021/05/01 06:36:42;;;;;;;13.23;6.97;;;;;;;;;;4361380;32;20131;-79
2021/05/01 06:39:08;;;;;;;10.73;7.33;;;;;;;;;;4360914;32;20170;-79
2021/05/01 06:41:53;;;;;;;11.90;6.80;;;;;;;;;;4361299;32;20573;-79
2021/05/01 06:44:28;;;;;;;9.53;6.67;;;;;;;;;;4361566;32;20132;-80
2021/05/01 06:46:54;;;;;;;11.43;6.50;;;;;;;;;;4361735;32;20198;-79
2021/05/01 06:49:28;;;;;;;10.10;6.40;;;;;;;;;;4361791;32;20552;-78
2021/05/01 06:51:54;;;;;;;11.53;6.37;;;;;;;;;;4362137;32;20135;-78
2021/05/01 06:54:22;;;;;;;11.10;6.33;;;;;;;;;;4361218;32;20147;-78
2021/05/01 06:56:47;;;;;;;11.03;6.60;;;;;;;;;;4361573;32;20486;-77
2021/05/01 06:59:14;;;;;;;10.37;6.17;;;;;;;;;;4361259;32;20191;-80
2021/05/01 07:01:40;;;;;;;12.33;5.90;;;;;;;;;;4360964;32;20143;-78
2021/05/01 07:04:11;;;;;;;10.63;5.63;;;;;;;;;;4360754;32;20131;-75
2021/05/01 07:06:36;;;;;;;13.57;6.60;;;;;;;;;;4347155;33;20158;-78
2021/05/01 07:09:02;;;;;;;12.47;6.10;;;;;;;;;;4359652;33;20155;-76
2021/05/01 07:11:28;;;;;;;12.20;5.73;;;;;;;;;;4361016;32;20219;-80
2021/05/01 07:13:54;;;;;;;9.13;5.37;;;;;;;;;;4360852;33;20154;-80
2021/05/01 07:16:19;;;;;;;11.73;6.30;;;;;;;;;;4344316;33;20159;-79
2021/05/01 07:18:45;;;;;;;8.03;5.50;;;;;;;;;;4345877;33;20124;-77
2021/05/01 07:21:11;;;;;;;10.47;5.73;;;;;;;;;;4345641;33;20450;-78
2021/05/01 07:23:37;;;;;;;9.27;5.40;;;;;;;;;;4344538;33;20160;-78
2021/05/01 07:26:03;;;;;;;10.13;5.10;;;;;;;;;;4345639;33;20522;-81
2021/05/01 07:28:30;;;;;;;14.48;6.97;;;;;;;;;;4345798;33;20132;-79
2021/05/01 07:31:01;;;;;;;11.15;6.40;;;;;;;;;;4345955;33;20156;-80
2021/05/01 07:33:31;;;;;;;15.10;6.10;;;;;;;;;;4346598;33;20127;-78
2021/05/01 07:36:01;;;;;;;9.57;5.22;;;;;;;;;;4345734;33;20158;-79
2021/05/01 07:38:26;;;;;;;7.40;4.40;;;;;;;;;;4346812;33;20539;-80
2021/05/01 07:40:52;;;;;;;10.90;4.37;;;;;;;;;;4346013;33;20135;-81
2021/05/01 07:43:18;;;;;;;6.22;3.62;;;;;;;;;;4345972;33;20136;-79
2021/05/01 07:45:46;;;;;;;6.32;3.72;;;;;;;;;;4345989;33;20128;-80
2021/05/01 07:48:13;;;;;;;11.32;4.05;;;;;;;;;;4344793;33;20190;-80
2021/05/01 07:50:38;;;;;;;9.27;4.20;;;;;;;;;;4345981;33;20139;-79
2021/05/01 07:53:17;;;;;;;10.57;4.10;;;;;;;;;;4345951;33;20124;-80
2021/05/01 07:55:46;;;;;;;5.85;4.05;;;;;;;;;;4343749;33;20151;-79
2021/05/01 07:58:11;;;;;;;8.07;4.10;;;;;;;;;;4345909;33;20202;-79
2021/05/01 08:00:41;;;;;;;7.85;3.90;;;;;;;;;;4344145;33;20162;-79
2021/05/01 08:03:06;;;;;;;8.05;3.50;;;;;;;;;;4332140;33;20238;-79
2021/05/01 08:05:31;;;;;;;7.17;3.50;;;;;;;;;;4345503;33;20170;-79
2021/05/01 08:07:59;;;;;;;8.43;3.40;;;;;;;;;;4345229;33;20158;-78
2021/05/01 08:10:26;;;;;;;8.50;3.20;;;;;;;;;;4345474;33;20266;-78
2021/05/01 08:12:52;;;;;;;5.27;3.33;;;;;;;;;;4345186;33;20193;-79
2021/05/01 08:15:17;;;;;;;5.68;3.42;;;;;;;;;;4344741;33;20482;-78
2021/05/01 08:17:42;;;;;;;5.65;2.85;;;;;;;;;;4345759;33;20136;-77
2021/05/01 08:20:08;;;;;;;6.10;2.90;;;;;;;;;;4345018;33;20659;-76
2021/05/01 08:22:35;;;;;;;7.28;3.15;;;;;;;;;;4344767;33;20214;-80
2021/05/01 08:25:03;;;;;;;10.32;3.55;;;;;;;;;;4344998;33;20135;-79
2021/05/01 08:27:28;;;;;;;7.65;3.35;;;;;;;;;;4331444;33;20484;-80
2021/05/01 08:29:54;;;;;;;5.10;3.25;;;;;;;;;;4344859;33;20128;-80
2021/05/01 08:32:21;;;;;;;7.57;3.37;;;;;;;;;;4345666;33;20128;-79
2021/05/01 08:34:47;;;;;;;4.97;2.90;;;;;;;;;;4344548;33;20534;-77
2021/05/01 08:37:12;;;;;;;8.18;3.03;;;;;;;;;;4344847;33;20127;-77
2021/05/01 08:39:38;;;;;;;7.47;3.20;;;;;;;;;;4345213;33;20131;-78
2021/05/01 08:42:03;;;;;;;9.75;3.72;;;;;;;;;;4344721;33;20135;-78
2021/05/01 08:44:29;;;;;;;6.12;3.35;;;;;;;;;;4344996;33;20150;-78
2021/05/01 08:46:54;;;;;;;8.10;3.40;;;;;;;;;;4345417;33;20230;-78
2021/05/01 08:49:24;;;;;;;9.50;3.00;;;;;;;;;;4345231;33;20131;-78
2021/05/01 08:51:50;;;;;;;7.35;3.17;;;;;;;;;;4345426;33;20166;-78
2021/05/01 08:54:15;;;;;;;9.80;3.33;;;;;;;;;;4347907;33;20445;-78
2021/05/01 08:56:41;;;;;;;6.60;2.90;;;;;;;;;;4347764;33;20577;-75
2021/05/01 08:59:07;;;;;;;5.40;2.97;;;;;;;;;;4346265;33;20210;-76
2021/05/01 09:01:34;;;;;;;6.57;2.75;;;;;;;;;;4347310;33;20231;-78
2021/05/01 09:04:00;;;;;;;8.05;3.10;;;;;;;;;;4347443;33;20127;-75
2021/05/01 09:06:26;;;;;;;4.28;2.80;;;;;;;;;;4348344;33;20189;-74
2021/05/01 09:08:55;;;;;;;4.70;3.20;;;;;;;;;;4347606;33;20249;-75
2021/05/01 09:11:31;;;;;;;4.30;2.70;;;;;;;;;;4347312;33;20132;-76
2021/05/01 09:13:59;;;;;;;4.55;2.62;;;;;;;;;;4348701;33;20131;-78
2021/05/01 09:16:24;;;;;;;4.95;2.45;;;;;;;;;;4347874;33;20230;-76
2021/05/01 09:19:01;;;;;;;4.97;2.10;;;;;;;;;;4347366;33;20128;-75
2021/05/01 09:21:27;;;;;;;4.20;2.55;;;;;;;;;;4333673;33;20143;-78
2021/05/01 09:23:53;;;;;;;5.12;2.90;;;;;;;;;;4347257;33;20482;-76
2021/05/01 09:26:32;;;;;;;10.88;3.37;;;;;;;;;;4348280;33;20124;-77
2021/05/01 09:28:58;;;;;;;5.22;2.90;;;;;;;;;;4333853;33;20155;-76
2021/05/01 09:31:23;;;;;;;5.55;2.65;;;;;;;;;;4346970;33;20159;-77
2021/05/01 09:33:55;;;;;;;4.72;2.90;;;;;;;;;;4347276;33;20124;-75
2021/05/01 09:36:21;;;;;;;4.12;2.53;;;;;;;;;;4347438;33;20135;-76
2021/05/01 09:39:07;;;;;;;5.22;2.42;;;;;;;;;;4347426;33;20158;-77
2021/05/01 09:41:34;;;;;;;3.15;2.28;;;;;;;;;;4347809;33;20123;-77
2021/05/01 09:44:07;;;;;;;3.50;2.35;;;;;;;;;;4333497;33;20159;-77
2021/05/01 09:46:42;;;;;;;4.05;2.45;;;;;;;;;;4347229;33;20221;-75
2021/05/01 09:49:21;;;;;;;4.30;2.75;;;;;;;;;;4347792;33;20571;-77
2021/05/01 09:52:02;;;;;;;5.75;2.70;;;;;;;;;;4347306;33;20165;-76
2021/05/01 09:54:29;;;;;;;5.72;2.40;;;;;;;;;;4348068;33;20453;-75
2021/05/01 09:57:03;;;;;;;4.45;2.60;;;;;;;;;;4347570;33;20128;-78
2021/05/01 09:59:41;;;;;;;4.32;2.40;;;;;;;;;;4347243;33;20132;-76
2021/05/01 10:02:09;;;;;;;6.10;2.65;;;;;;;;;;4346639;33;20127;-75
2021/05/01 10:04:34;;;;;;;3.78;2.72;;;;;;;;;;4345545;33;20158;-74
2021/05/01 10:07:01;;;;;;;5.20;2.22;;;;;;;;;;4346864;33;20228;-75
2021/05/01 10:09:28;;;;;;;4.85;2.87;;;;;;;;;;4347207;33;20132;-74
2021/05/01 10:12:01;;;;;;;4.28;2.67;;;;;;;;;;4346399;33;20140;-76
2021/05/01 10:14:34;;;;;;;3.87;2.75;;;;;;;;;;4345216;33;20492;-78
2021/05/01 10:17:00;;;;;;;5.15;2.55;;;;;;;;;;4346773;33;20135;-76
2021/05/01 10:19:41;;;;;;;6.10;2.70;;;;;;;;;;4346253;33;20499;-79
2021/05/01 10:22:19;;;;;;;4.75;2.47;;;;;;;;;;4347218;33;20178;-78
2021/05/01 10:24:45;;;;;;;3.42;2.33;;;;;;;;;;4347023;33;20199;-73
2021/05/01 10:27:10;;;;;;;3.72;2.45;;;;;;;;;;4347310;33;20182;-77
2021/05/01 10:29:38;;;;;;;3.95;2.22;;;;;;;;;;4347042;33;20207;-76
2021/05/01 10:32:16;;;;;;;4.43;2.65;;;;;;;;;;4342711;33;20174;-75
2021/05/01 10:34:43;;;;;;;3.62;2.28;;;;;;;;;;4360144;32;20142;-74
2021/05/01 10:37:09;;;;;;;3.72;2.30;;;;;;;;;;4352714;32;20173;-75
2021/05/01 10:39:44;;;;;;;5.90;2.80;;;;;;;;;;4345562;33;20128;-75
2021/05/01 10:42:12;;;;;;;5.15;2.60;;;;;;;;;;4347250;33;20151;-77
2021/05/01 10:44:38;;;;;;;3.45;2.55;;;;;;;;;;4347197;33;20202;-77
2021/05/01 10:47:08;;;;;;;4.40;2.70;;;;;;;;;;4347002;33;20635;-77
2021/05/01 10:49:34;;;;;;;7.30;2.60;;;;;;;;;;4360924;32;20182;-77
2021/05/01 10:52:11;;;;;;;5.55;2.50;;;;;;;;;;4360652;33;20476;-76
2021/05/01 10:54:36;;;;;;;3.62;2.70;;;;;;;;;;4361302;32;20167;-77
2021/05/01 10:57:11;;;;;;;3.90;2.80;;;;;;;;;;4360630;32;20529;-76
2021/05/01 10:59:40;;;;;;;6.57;2.70;;;;;;;;;;4361044;32;20487;-77
2021/05/01 11:02:13;;;;;;;5.75;3.00;;;;;;;;;;4357557;32;20197;-75
2021/05/01 11:04:47;;;;;;;4.62;2.92;;;;;;;;;;4346210;33;20258;-79
2021/05/01 11:07:19;;;;;;;3.97;3.10;;;;;;;;;;4346306;33;20506;-75
2021/05/01 11:09:46;;;;;;;4.40;3.15;;;;;;;;;;4346232;33;20140;-76
2021/05/01 11:12:15;;;;;;;5.12;2.92;;;;;;;;;;4345661;33;20190;-78
2021/05/01 11:14:46;;;;;;;10.50;3.60;;;;;;;;;;4347141;33;20132;-75
2021/05/01 11:17:13;;;;;;;4.82;2.90;;;;;;;;;;4345945;33;20167;-74
2021/05/01 11:19:42;;;;;;;3.95;2.92;;;;;;;;;;4345010;33;20159;-76
2021/05/01 11:22:11;;;;;;;4.60;2.78;;;;;;;;;;4347080;33;20154;-77
2021/05/01 11:24:37;;;;;;;5.97;3.03;;;;;;;;;;4347248;33;20250;-77
2021/05/01 11:27:02;;;;;;;4.18;2.85;;;;;;;;;;4361028;33;20163;-79
2021/05/01 11:29:28;;;;;;;4.68;2.75;;;;;;;;;;4360957;32;20209;-75
2021/05/01 11:31:55;;;;;;;3.50;2.50;;;;;;;;;;4359941;32;20190;-78
2021/05/01 11:34:20;;;;;;;5.28;3.10;;;;;;;;;;4359598;32;20147;-76
2021/05/01 11:36:55;;;;;;;4.03;2.90;;;;;;;;;;4367928;32;20135;-73
2021/05/01 11:39:21;;;;;;;3.90;3.05;;;;;;;;;;4375184;32;20161;-78
2021/05/01 11:41:46;;;;;;;4.15;2.55;;;;;;;;;;4375318;32;20433;-78
2021/05/01 11:44:13;;;;;;;5.57;2.55;;;;;;;;;;4371194;32;20186;-77
2021/05/01 11:46:53;;;;;;;5.15;2.90;;;;;;;;;;4377364;32;20146;-78
2021/05/01 11:49:21;;;;;;;4.25;3.10;;;;;;;;;;4378355;32;20158;-81
2021/05/01 11:51:49;;;;;;;5.50;2.80;;;;;;;;;;4377130;32;20178;-80
2021/05/01 11:54:35;;;;;;;5.12;2.90;;;;;;;;;;4376245;32;20146;-78
2021/05/01 11:57:05;;;;;;;4.62;2.72;;;;;;;;;;4345267;32;20607;-77
2021/05/01 11:59:30;;;;;;;5.28;2.83;;;;;;;;;;4348173;32;20487;-79
2021/05/01 12:01:56;;;;;;;4.15;2.85;;;;;;;;;;4376240;32;20164;-77
2021/05/01 12:04:21;;;;;;;3.63;2.30;;;;;;;;;;4376420;32;20163;-78
2021/05/01 12:06:53;;;;;;;3.87;2.20;;;;;;;;;;4375866;32;20224;-81
2021/05/01 12:09:22;;;;;;;3.37;2.40;;;;;;;;;;4374328;32;20213;-76
2021/05/01 12:11:48;;;;;;;3.45;2.10;;;;;;;;;;4366929;32;20565;-75
2021/05/01 12:14:14;;;;;;;3.15;2.40;;;;;;;;;;4359315;32;20155;-80
2021/05/01 12:16:41;;;;;;;5.97;2.65;;;;;;;;;;4360699;33;20548;-78
2021/05/01 12:19:06;;;;;;;3.20;2.12;;;;;;;;;;4360902;32;20135;-78
2021/05/01 12:21:40;;;;;;;3.33;1.95;;;;;;;;;;4360219;32;20158;-79
2021/05/01 12:24:19;;;;;;;4.28;2.37;;;;;;;;;;4360866;32;20612;-77
2021/05/01 12:26:45;;;;;;;2.42;1.85;;;;;;;;;;4360137;32;20200;-80
2021/05/01 12:29:23;;;;;;;2.90;1.90;;;;;;;;;;4359768;33;20545;-76
2021/05/01 12:31:50;;;;;;;2.95;2.30;;;;;;;;;;4359536;33;20173;-78
2021/05/01 12:34:18;;;;;;;2.42;1.90;;;;;;;;;;4346579;33;20214;-79
2021/05/01 12:36:48;;;;;;;5.72;2.37;;;;;;;;;;4360155;33;20184;-79
2021/05/01 12:39:24;;;;;;;4.15;2.08;;;;;;;;;;4346730;33;20581;-79
2021/05/01 12:41:50;;;;;;;4.68;2.17;;;;;;;;;;4360707;33;20189;-76
2021/05/01 12:44:33;;;;;;;3.90;2.10;;;;;;;;;;4347432;33;20155;-76
2021/05/01 12:46:58;;;;;;;2.60;1.95;;;;;;;;;;4360363;33;20128;-80
2021/05/01 12:49:25;;;;;;;3.10;1.95;;;;;;;;;;4359344;33;20147;-79
2021/05/01 12:51:55;;;;;;;3.60;2.05;;;;;;;;;;4359811;33;20139;-77
2021/05/01 12:54:20;;;;;;;2.97;2.15;;;;;;;;;;4346075;33;20226;-78
2021/05/01 12:56:50;;;;;;;5.60;2.30;;;;;;;;;;4360215;33;20138;-77
2021/05/01 12:59:24;;;;;;;3.62;2.22;;;;;;;;;;4359527;33;20169;-77
2021/05/01 13:01:52;;;;;;;2.87;1.73;;;;;;;;;;4360284;33;20126;-77
2021/05/01 13:04:27;;;;;;;2.70;2.00;;;;;;;;;;4359848;33;20174;-78
2021/05/01 13:06:55;;;;;;;3.30;2.00;;;;;;;;;;4359950;33;20527;-80
2021/05/01 13:09:21;;;;;;;3.58;2.10;;;;;;;;;;4359129;33;20135;-79
2021/05/01 13:12:05;;;;;;;2.72;2.00;;;;;;;;;;4359677;33;20158;-78
2021/05/01 13:14:31;;;;;;;3.87;2.10;;;;;;;;;;4359208;33;20176;-76
2021/05/01 13:17:02;;;;;;;3.80;2.30;;;;;;;;;;4360243;33;20127;-78
2021/05/01 13:19:59;;;;;;;3.92;2.00;;;;;;;;;;4346014;33;20237;-80
2021/05/01 13:22:25;;;;;;;3.45;1.90;;;;;;;;;;4359806;33;20163;-77
2021/05/01 13:25:03;;;;;;;4.78;3.40;;;;;;;;;;4360024;33;20182;-76
2021/05/01 13:27:35;;;;;;;4.25;2.12;;;;;;;;;;4358977;33;20223;-77
2021/05/01 13:30:05;;;;;;;2.87;2.30;;;;;;;;;;4359991;33;20158;-78
2021/05/01 13:32:31;;;;;;;2.50;2.08;;;;;;;;;;4359769;33;20181;-77
2021/05/01 13:34:57;;;;;;;6.32;2.42;;;;;;;;;;4358879;33;20462;-74
2021/05/01 13:37:23;;;;;;;2.60;2.00;;;;;;;;;;4359848;32;20515;-76
2021/05/01 13:39:49;;;;;;;4.80;2.40;;;;;;;;;;4362320;32;20177;-73
2021/05/01 13:42:18;;;;;;;4.17;2.13;;;;;;;;;;4361643;32;20206;-78
2021/05/01 13:44:48;;;;;;;3.22;2.45;;;;;;;;;;4361637;33;20227;-74
2021/05/01 13:47:25;;;;;;;2.83;1.92;;;;;;;;;;4361906;32;20143;-75
2021/05/01 13:50:01;;;;;;;3.53;2.40;;;;;;;;;;4348501;33;20150;-76
2021/05/01 13:52:33;;;;;;;2.97;2.15;;;;;;;;;;4361872;32;20146;-78
2021/05/01 13:55:16;;;;;;;4.18;2.30;;;;;;;;;;4361196;33;20143;-76
2021/05/01 13:57:42;;;;;;;3.50;2.40;;;;;;;;;;4348036;33;20222;-72
2021/05/01 14:00:10;;;;;;;2.97;1.87;;;;;;;;;;4361636;32;20139;-74
2021/05/01 14:02:36;;;;;;;2.95;2.35;;;;;;;;;;4361492;32;20135;-77
2021/05/01 14:05:02;;;;;;;3.10;2.40;;;;;;;;;;4361366;32;20134;-76
2021/05/01 14:07:28;;;;;;;4.20;2.30;;;;;;;;;;4360927;33;20170;-77
2021/05/01 14:09:53;;;;;;;4.28;2.50;;;;;;;;;;4361443;32;20136;-76
2021/05/01 14:12:18;;;;;;;3.40;2.10;;;;;;;;;;4361888;33;20190;-79
2021/05/01 14:14:44;;;;;;;3.72;2.42;;;;;;;;;;4361488;32;20135;-74
2021/05/01 14:17:10;;;;;;;3.40;2.55;;;;;;;;;;4347571;33;20171;-80
2021/05/01 14:19:36;;;;;;;4.70;2.70;;;;;;;;;;4361193;32;20139;-77
2021/05/01 14:22:03;;;;;;;2.97;2.30;;;;;;;;;;4347848;33;20190;-77
2021/05/01 14:24:28;;;;;;;3.97;2.80;;;;;;;;;;4361620;32;20161;-77
2021/05/01 14:26:58;;;;;;;3.42;2.70;;;;;;;;;;4362771;32;20128;-78
2021/05/01 14:29:25;;;;;;;3.40;2.15;;;;;;;;;;4362129;32;20182;-79
2021/05/01 14:32:09;;;;;;;2.85;2.10;;;;;;;;;;4361004;32;20239;-79
2021/05/01 14:34:34;;;;;;;7.15;4.28;;;;;;;;;;4360789;32;20151;-80
2021/05/01 14:36:59;;;;;;;3.70;2.17;;;;;;;;;;4334084;33;20182;-77
2021/05/01 14:39:24;;;;;;;4.60;2.37;;;;;;;;;;4346679;33;20247;-79
2021/05/01 14:41:50;;;;;;;2.90;2.20;;;;;;;;;;4347323;33;20154;-78